createdAt,value
2019-02-19T00:01:02.184Z,45.00
2019-02-19T00:03:38.017Z,46.35
2019-02-19T00:06:14.496Z,43.02
2019-02-19T00:08:49.626Z,41.28
2019-02-19T00:11:24.745Z,41.48
2019-02-19T00:13:59.114Z,39.38
2019-02-19T00:16:37.229Z,38.30
2019-02-19T00:19:14.203Z,39.38
2019-02-19T00:21:49.000Z,38.45
2019-02-19T00:24:24.869Z,36.65
2019-02-19T00:27:01.641Z,36.50
2019-02-19T00:29:36.691Z,36.53
2019-02-19T00:32:11.763Z,36.00
2019-02-19T00:34:47.137Z,36.33
2019-02-19T00:37:22.967Z,33.85
2019-02-19T00:39:59.506Z,34.45
2019-02-19T00:42:35.041Z,33.83
2019-02-19T00:45:16.686Z,31.40
2019-02-19T00:47:48.032Z,31.93
2019-02-19T00:50:22.989Z,32.17
2019-02-19T00:52:58.740Z,30.82
2019-02-19T00:55:34.490Z,30.25
2019-02-19T00:58:10.167Z,30.50
2019-02-19T01:00:45.279Z,30.20
2019-02-19T01:03:20.318Z,30.08
2019-02-19T01:05:55.482Z,30.30
2019-02-19T01:08:31.314Z,28.85
2019-02-19T01:11:05.712Z,28.57
2019-02-19T01:13:41.888Z,30.62
2019-02-19T01:16:16.828Z,33.08
2019-02-19T01:18:53.402Z,35.68
2019-02-19T01:21:28.327Z,42.25
2019-02-19T01:24:02.805Z,50.90
2019-02-19T01:26:38.155Z,76.25
2019-02-19T01:29:13.820Z,49.83
2019-02-19T01:31:49.859Z,48.63
2019-02-19T01:34:24.843Z,55.17
2019-02-19T01:37:00.589Z,56.50
2019-02-19T01:39:36.857Z,56.83
2019-02-19T01:42:11.990Z,63.38
2019-02-19T01:44:48.026Z,47.20
2019-02-19T01:47:24.982Z,38.20
2019-02-19T01:50:02.559Z,34.38
2019-02-19T01:52:37.683Z,32.38
2019-02-19T01:55:13.612Z,32.30
2019-02-19T01:57:49.473Z,31.80
2019-02-19T02:00:25.651Z,31.95
2019-02-19T02:03:00.714Z,29.98
2019-02-19T02:05:36.322Z,29.18
2019-02-19T02:08:13.775Z,29.02
2019-02-19T02:10:48.750Z,28.87
2019-02-19T02:13:23.882Z,27.37
2019-02-19T02:15:59.866Z,27.37
2019-02-19T02:18:34.895Z,28.98
2019-02-19T02:21:10.745Z,27.32
2019-02-19T02:23:49.062Z,26.85
2019-02-19T02:26:22.040Z,26.50
2019-02-19T02:28:58.664Z,25.23
2019-02-19T02:31:32.810Z,24.65
2019-02-19T02:34:05.840Z,25.92
2019-02-19T02:36:39.341Z,23.92
2019-02-19T02:39:12.657Z,24.05
2019-02-19T02:41:46.445Z,26.57
2019-02-19T02:44:20.304Z,26.33
2019-02-19T02:46:54.138Z,22.52
2019-02-19T02:49:28.441Z,24.52
2019-02-19T02:52:05.214Z,24.32
2019-02-19T02:54:40.779Z,24.80
2019-02-19T02:57:17.315Z,24.20
2019-02-19T02:59:53.224Z,24.77
2019-02-19T03:02:28.925Z,24.98
2019-02-19T03:05:03.247Z,27.95
2019-02-19T03:07:42.372Z,32.53
2019-02-19T03:10:19.319Z,31.48
2019-02-19T03:12:56.183Z,28.02
2019-02-19T03:15:32.376Z,26.90
2019-02-19T03:18:09.168Z,25.37
2019-02-19T03:20:47.002Z,22.75
2019-02-19T03:23:22.990Z,23.30
2019-02-19T03:25:59.170Z,23.70
2019-02-19T03:28:34.378Z,23.87
2019-02-19T03:31:09.384Z,24.85
2019-02-19T03:33:46.050Z,24.60
2019-02-19T03:36:21.213Z,23.65
2019-02-19T03:38:58.620Z,22.85
2019-02-19T03:41:33.638Z,23.05
2019-02-19T03:44:09.179Z,22.50
2019-02-19T03:46:45.530Z,22.60
2019-02-19T03:49:21.489Z,24.23
2019-02-19T03:51:58.755Z,26.30
2019-02-19T03:54:33.750Z,35.28
2019-02-19T03:57:09.270Z,37.67
2019-02-19T03:59:44.784Z,33.55
2019-02-19T04:02:19.232Z,31.15
2019-02-19T04:04:54.988Z,25.68
2019-02-19T04:07:30.697Z,25.00
2019-02-19T04:10:07.401Z,24.82
2019-02-19T04:12:44.610Z,24.67
2019-02-19T04:15:19.357Z,25.68
2019-02-19T04:17:54.238Z,23.50
2019-02-19T04:20:28.758Z,25.23
2019-02-19T04:23:03.804Z,26.77
2019-02-19T04:25:38.088Z,33.73
2019-02-19T04:28:12.483Z,35.55
2019-02-19T04:30:48.348Z,36.83
2019-02-19T04:33:23.752Z,37.20
2019-02-19T04:35:58.199Z,34.13
2019-02-19T04:38:36.070Z,31.65
2019-02-19T04:41:12.846Z,30.90
2019-02-19T04:43:49.654Z,32.83
2019-02-19T04:46:31.491Z,42.70
2019-02-19T04:49:00.855Z,42.45
2019-02-19T04:51:35.838Z,46.28
2019-02-19T04:54:12.520Z,41.13
2019-02-19T04:56:47.267Z,38.48
2019-02-19T04:59:23.940Z,33.35
2019-02-19T05:02:00.115Z,27.70
2019-02-19T05:04:36.636Z,27.82
2019-02-19T05:07:12.724Z,25.45
2019-02-19T05:09:49.506Z,23.18
2019-02-19T05:12:24.736Z,23.65
2019-02-19T05:15:01.828Z,23.42
2019-02-19T05:17:38.783Z,22.62
2019-02-19T05:20:15.626Z,22.52
2019-02-19T05:22:50.811Z,21.10
2019-02-19T05:25:27.762Z,22.80
2019-02-19T05:28:05.104Z,25.97
2019-02-19T05:30:43.041Z,27.40
2019-02-19T05:33:19.697Z,31.30
2019-02-19T05:35:56.805Z,31.57
2019-02-19T05:38:32.395Z,32.78
2019-02-19T05:41:07.516Z,31.73
2019-02-19T05:43:42.488Z,34.10
2019-02-19T05:46:18.939Z,34.90
2019-02-19T05:48:54.607Z,33.05
2019-02-19T05:51:29.705Z,32.83
2019-02-19T05:54:05.718Z,31.45
2019-02-19T05:56:41.731Z,32.48
2019-02-19T05:59:23.340Z,37.20
2019-02-19T06:02:09.125Z,38.13
2019-02-19T06:04:56.897Z,37.15
2019-02-19T06:07:40.579Z,39.10
2019-02-19T06:10:20.739Z,37.50
2019-02-19T06:13:09.256Z,33.78
2019-02-19T06:15:41.789Z,30.85
2019-02-19T06:18:15.944Z,28.77
2019-02-19T06:20:48.943Z,26.05
2019-02-19T06:23:24.270Z,27.32
2019-02-19T06:25:59.691Z,24.63
2019-02-19T06:28:34.036Z,23.67
2019-02-19T06:31:10.119Z,25.20
2019-02-19T06:33:45.072Z,23.67
2019-02-19T06:36:21.983Z,25.35
2019-02-19T06:38:58.336Z,24.85
2019-02-19T06:41:34.277Z,23.20
2019-02-19T06:44:09.301Z,25.55
2019-02-19T06:46:47.533Z,25.32
2019-02-19T06:49:23.130Z,24.55
2019-02-19T06:51:59.326Z,24.75
2019-02-19T06:54:33.858Z,25.85
2019-02-19T06:57:08.396Z,28.30
2019-02-19T06:59:43.335Z,27.48
2019-02-19T07:02:30.937Z,27.45
2019-02-19T07:05:08.727Z,27.90
2019-02-19T07:07:46.016Z,28.62
2019-02-19T07:10:19.399Z,27.93
2019-02-19T07:12:53.759Z,27.55
2019-02-19T07:15:27.503Z,27.15
2019-02-19T07:18:02.799Z,28.12
2019-02-19T07:20:37.148Z,28.45
2019-02-19T07:23:11.667Z,27.10
2019-02-19T07:25:46.935Z,27.07
2019-02-19T07:28:22.315Z,29.30
2019-02-19T07:30:57.343Z,31.70
2019-02-19T07:33:31.683Z,38.73
2019-02-19T07:36:06.689Z,41.58
2019-02-19T07:38:40.890Z,41.20
2019-02-19T07:41:15.637Z,34.35
2019-02-19T07:43:49.812Z,32.35
2019-02-19T07:46:25.467Z,31.93
2019-02-19T07:48:58.704Z,28.42
2019-02-19T07:51:33.355Z,27.20
2019-02-19T07:54:08.271Z,28.40
2019-02-19T07:56:43.559Z,29.12
2019-02-19T07:59:16.373Z,26.20
2019-02-19T08:01:50.209Z,25.82
2019-02-19T08:04:25.063Z,25.80
2019-02-19T08:06:59.410Z,24.63
2019-02-19T08:09:34.056Z,25.85
2019-02-19T08:12:08.361Z,25.82
2019-02-19T08:14:41.261Z,23.45
2019-02-19T08:17:14.503Z,24.80
2019-02-19T08:19:48.829Z,25.40
2019-02-19T08:22:23.609Z,23.07
2019-02-19T08:24:58.259Z,24.12
2019-02-19T08:27:31.139Z,23.27
2019-02-19T08:30:05.649Z,22.58
2019-02-19T08:32:40.060Z,23.92
2019-02-19T08:35:13.483Z,23.05
2019-02-19T08:37:46.827Z,22.77
2019-02-19T08:40:21.981Z,21.42
2019-02-19T08:42:55.766Z,22.67
2019-02-19T08:45:28.564Z,22.13
2019-02-19T08:48:02.463Z,22.65
2019-02-19T08:50:36.706Z,23.25
2019-02-19T08:53:10.345Z,23.57
2019-02-19T08:55:46.396Z,22.90
2019-02-19T08:58:19.352Z,22.30
2019-02-19T09:00:52.275Z,22.80
2019-02-19T09:03:26.895Z,24.18
2019-02-19T09:05:59.255Z,24.25
2019-02-19T09:08:32.163Z,23.95
2019-02-19T09:11:05.148Z,22.60
2019-02-19T09:13:38.401Z,25.43
2019-02-19T09:16:11.518Z,22.85
2019-02-19T09:18:44.758Z,23.00
2019-02-19T09:21:16.797Z,22.02
2019-02-19T09:23:49.214Z,23.25
2019-02-19T09:26:23.371Z,22.60
2019-02-19T09:28:56.646Z,20.12
2019-02-19T09:31:29.159Z,21.48
2019-02-19T09:34:02.888Z,20.85
2019-02-19T09:36:36.360Z,21.12
2019-02-19T09:39:10.385Z,21.05
2019-02-19T09:41:44.232Z,20.55
2019-02-19T09:44:18.412Z,20.77
2019-02-19T09:46:52.659Z,21.17
2019-02-19T09:49:26.878Z,20.77
2019-02-19T09:51:58.850Z,21.33
2019-02-19T09:54:31.400Z,23.00
2019-02-19T09:57:04.712Z,21.27
2019-02-19T09:59:39.126Z,20.27
2019-02-19T10:02:12.630Z,21.17
2019-02-19T10:04:45.109Z,20.40
2019-02-19T10:07:19.393Z,21.75
2019-02-19T10:09:53.261Z,19.75
2019-02-19T10:12:27.926Z,21.35
2019-02-19T10:15:00.847Z,21.73
2019-02-19T10:17:34.147Z,21.62
2019-02-19T10:20:07.704Z,21.95
2019-02-19T10:22:41.258Z,22.60
2019-02-19T10:25:14.202Z,22.00
2019-02-19T10:27:47.068Z,23.30
2019-02-19T10:30:19.563Z,21.68
2019-02-19T10:32:52.535Z,22.93
2019-02-19T10:35:24.688Z,22.65
2019-02-19T10:37:58.149Z,22.77
2019-02-19T10:40:30.619Z,21.05
2019-02-19T10:43:02.633Z,20.90
2019-02-19T10:45:36.204Z,21.12
2019-02-19T10:48:09.595Z,22.40
2019-02-19T10:50:43.016Z,20.60
2019-02-19T10:53:15.898Z,21.75
2019-02-19T10:55:48.953Z,21.27
2019-02-19T10:58:23.290Z,21.77
2019-02-19T11:00:57.424Z,20.72
2019-02-19T11:03:30.404Z,21.68
2019-02-19T11:06:03.289Z,21.23
2019-02-19T11:08:36.099Z,20.15
2019-02-19T11:11:09.352Z,21.60
2019-02-19T11:13:43.318Z,20.35
2019-02-19T11:16:16.261Z,20.62
2019-02-19T11:18:49.224Z,20.62
2019-02-19T11:21:22.714Z,20.70
2019-02-19T11:23:55.117Z,21.85
2019-02-19T11:26:28.077Z,19.17
2019-02-19T11:29:02.549Z,22.20
2019-02-19T11:31:36.259Z,20.72
2019-02-19T11:34:09.138Z,20.85
2019-02-19T11:36:42.441Z,20.65
2019-02-19T11:39:16.480Z,20.20
2019-02-19T11:41:49.861Z,20.65
2019-02-19T11:44:22.918Z,21.02
2019-02-19T11:46:56.933Z,20.45
2019-02-19T11:49:30.354Z,19.07
2019-02-19T11:52:03.306Z,18.32
2019-02-19T11:54:37.078Z,20.20
2019-02-19T11:57:10.444Z,19.50
2019-02-19T11:59:44.152Z,18.70
2019-02-19T12:02:18.452Z,17.80
2019-02-19T12:04:52.699Z,17.12
2019-02-19T12:07:26.985Z,16.10
2019-02-19T12:10:01.890Z,16.27
2019-02-19T12:12:35.640Z,15.53
2019-02-19T12:15:08.634Z,17.12
2019-02-19T12:17:42.054Z,15.95
2019-02-19T12:20:14.562Z,16.32
2019-02-19T12:22:48.011Z,16.93
2019-02-19T12:25:21.196Z,17.05
2019-02-19T12:27:57.434Z,15.70
2019-02-19T12:30:33.174Z,17.70
2019-02-19T12:33:10.465Z,17.10
2019-02-19T12:35:45.043Z,16.87
2019-02-19T12:38:20.665Z,18.15
2019-02-19T12:40:57.092Z,16.55
2019-02-19T12:43:33.989Z,17.75
2019-02-19T12:46:09.159Z,16.62
2019-02-19T12:48:44.992Z,19.90
2019-02-19T12:51:26.462Z,16.37
2019-02-19T12:53:59.770Z,16.40
2019-02-19T12:56:36.520Z,15.63
2019-02-19T12:59:14.041Z,14.98
2019-02-19T13:01:50.251Z,15.45
2019-02-19T13:04:25.206Z,15.68
2019-02-19T13:07:01.513Z,16.25
2019-02-19T13:09:39.470Z,16.65
2019-02-19T13:12:26.046Z,16.90
2019-02-19T13:15:00.414Z,16.25
2019-02-19T13:17:36.537Z,16.45
2019-02-19T13:20:14.077Z,17.05
2019-02-19T13:22:49.934Z,17.07
2019-02-19T13:25:25.438Z,16.90
2019-02-19T13:28:00.568Z,17.77
2019-02-19T13:30:35.469Z,16.10
2019-02-19T13:33:10.540Z,17.52
2019-02-19T13:35:46.745Z,17.10
2019-02-19T13:38:21.331Z,17.55
2019-02-19T13:40:56.434Z,16.67
2019-02-19T13:43:30.024Z,17.30
2019-02-19T13:46:03.349Z,21.93
2019-02-19T13:48:37.427Z,18.45
2019-02-19T13:51:10.815Z,16.42
2019-02-19T13:53:47.856Z,16.77
2019-02-19T13:56:21.184Z,16.32
2019-02-19T13:58:54.290Z,15.85
2019-02-19T14:02:11.080Z,19.10
2019-02-19T14:05:05.843Z,17.10
2019-02-19T14:12:11.846Z,16.70
2019-02-19T14:15:32.484Z,17.02
2019-02-19T14:18:22.637Z,17.65
2019-02-19T14:21:42.563Z,18.12
2019-02-19T14:25:08.154Z,20.37
2019-02-19T14:28:44.579Z,16.52
2019-02-19T14:31:46.833Z,15.58
2019-02-19T14:35:11.072Z,14.30
2019-02-19T14:42:55.450Z,16.27
2019-02-19T14:50:57.243Z,15.43
2019-02-19T14:59:00.985Z,17.25
2019-02-19T15:10:58.065Z,19.62
2019-02-19T15:14:49.382Z,19.82
2019-02-19T15:19:00.156Z,20.35
2019-02-19T15:35:55.023Z,19.27
2019-02-19T16:03:24.708Z,27.52
2019-02-19T16:06:52.465Z,27.93
2019-02-19T16:09:44.517Z,28.90
2019-02-19T16:12:39.954Z,29.55
2019-02-19T16:15:47.811Z,32.60
2019-02-19T16:18:43.065Z,34.98
2019-02-19T16:21:30.309Z,36.30
2019-02-19T16:24:32.576Z,33.60
2019-02-19T16:27:32.975Z,38.92
2019-02-19T16:30:37.209Z,41.45
2019-02-19T16:33:33.549Z,40.80
2019-02-19T16:36:15.025Z,37.63
2019-02-19T16:39:08.092Z,38.02
2019-02-19T16:42:00.715Z,37.30
2019-02-19T16:45:01.421Z,35.68
2019-02-19T16:47:43.188Z,33.55
2019-02-19T16:50:54.307Z,33.15
2019-02-19T16:53:46.696Z,32.42
2019-02-19T16:56:41.367Z,31.30
2019-02-19T16:59:33.994Z,28.42
2019-02-19T17:02:16.301Z,28.57
2019-02-19T17:05:15.369Z,26.57
2019-02-19T17:08:05.747Z,25.52
2019-02-19T17:10:59.267Z,29.32
2019-02-19T17:13:58.142Z,31.45
2019-02-19T17:16:53.195Z,29.50
2019-02-19T17:19:48.626Z,29.32
2019-02-19T17:22:41.167Z,28.85
2019-02-19T17:25:32.787Z,28.47
2019-02-19T17:28:18.085Z,27.93
2019-02-19T17:31:23.321Z,28.32
2019-02-19T17:34:17.403Z,28.65
2019-02-19T17:37:22.543Z,29.67
2019-02-19T17:40:25.601Z,27.98
2019-02-19T17:43:16.648Z,27.27
2019-02-19T17:46:12.094Z,26.93
2019-02-19T17:49:07.582Z,25.95
2019-02-19T17:51:54.179Z,28.70
2019-02-19T17:54:41.529Z,28.42
2019-02-19T17:57:55.667Z,26.85
2019-02-19T18:01:08.410Z,26.48
2019-02-19T18:03:59.138Z,26.02
2019-02-19T18:06:55.190Z,23.42
2019-02-19T18:10:01.770Z,24.72
2019-02-19T18:12:56.271Z,25.52
2019-02-19T18:15:57.696Z,25.15
2019-02-19T18:18:51.037Z,26.93
2019-02-19T18:21:25.896Z,28.85
2019-02-19T18:23:59.428Z,27.17
2019-02-19T18:26:32.682Z,27.17
2019-02-19T18:29:06.169Z,24.98
2019-02-19T18:31:39.723Z,27.17
2019-02-19T18:34:13.215Z,29.92
2019-02-19T18:36:46.270Z,24.72
2019-02-19T18:39:19.399Z,23.67
2019-02-19T18:41:57.634Z,20.35
2019-02-19T18:44:30.650Z,18.65
2019-02-19T18:47:12.824Z,18.85
2019-02-19T18:49:48.961Z,19.57
2019-02-19T18:52:24.613Z,18.37
2019-02-19T18:54:59.439Z,17.67
2019-02-19T18:57:32.988Z,16.50
2019-02-19T19:00:12.475Z,15.50
2019-02-19T19:02:48.773Z,15.68
2019-02-19T19:05:25.218Z,14.75
2019-02-19T19:08:00.082Z,15.00
2019-02-19T19:10:35.189Z,16.45
2019-02-19T19:13:10.999Z,17.75
2019-02-19T19:15:45.623Z,18.92
2019-02-19T19:18:24.788Z,18.30
2019-02-19T19:21:11.410Z,19.48
2019-02-19T19:23:47.257Z,19.15
2019-02-19T19:26:23.451Z,18.23
2019-02-19T19:28:59.190Z,19.35
2019-02-19T19:31:45.070Z,19.45
2019-02-19T19:34:19.741Z,18.92
2019-02-19T19:37:00.130Z,17.57
2019-02-19T19:39:37.023Z,16.15
2019-02-19T19:42:11.865Z,17.75
2019-02-19T19:45:01.126Z,18.70
2019-02-19T19:47:40.492Z,15.38
2019-02-19T19:50:24.077Z,14.98
2019-02-19T19:53:03.835Z,14.03
2019-02-19T19:55:37.971Z,14.58
2019-02-19T19:58:13.909Z,15.18
2019-02-19T20:00:48.936Z,14.70
2019-02-19T20:03:22.314Z,14.38
2019-02-19T20:05:57.230Z,17.65
2019-02-19T20:08:31.901Z,17.67
2019-02-19T20:11:10.709Z,14.10
2019-02-19T20:13:47.469Z,14.30
2019-02-19T20:16:22.379Z,11.68
2019-02-19T20:18:56.627Z,9.23
2019-02-19T20:21:32.901Z,8.80
2019-02-19T20:24:07.629Z,8.00
2019-02-19T20:26:42.482Z,7.20
2019-02-19T20:29:18.589Z,7.95
2019-02-19T20:31:54.922Z,7.62
2019-02-19T20:34:32.600Z,7.75
2019-02-19T20:37:07.529Z,7.80
2019-02-19T20:39:56.685Z,8.30
2019-02-19T20:42:30.779Z,7.67
2019-02-19T20:45:05.122Z,8.25
2019-02-19T20:47:39.628Z,7.20
2019-02-19T20:50:16.089Z,7.33
2019-02-19T20:52:50.559Z,8.50
2019-02-19T20:55:24.258Z,8.48
2019-02-19T20:57:59.875Z,8.95
2019-02-19T21:00:33.741Z,9.73
2019-02-19T21:03:10.565Z,9.15
2019-02-19T21:05:50.343Z,9.40
2019-02-19T21:08:24.706Z,9.58
2019-02-19T21:11:06.545Z,9.73
2019-02-19T21:13:40.432Z,9.80
2019-02-19T21:16:14.719Z,9.70
2019-02-19T21:18:48.982Z,10.38
2019-02-19T21:21:24.004Z,9.53
2019-02-19T21:23:58.043Z,9.88
2019-02-19T21:26:32.106Z,10.85
2019-02-19T21:29:07.963Z,12.15
2019-02-19T21:31:42.395Z,12.25
2019-02-19T21:34:16.539Z,14.13
2019-02-19T21:36:50.708Z,12.55
2019-02-19T21:39:25.078Z,11.63
2019-02-19T21:42:00.019Z,11.75
2019-02-19T21:44:33.980Z,11.20
2019-02-19T21:47:08.884Z,12.50
2019-02-19T21:49:46.073Z,13.22
2019-02-19T21:52:20.969Z,13.30
2019-02-19T21:54:56.180Z,12.05
2019-02-19T21:57:31.017Z,12.60
2019-02-19T22:00:06.165Z,13.03
2019-02-19T22:02:39.994Z,12.73
2019-02-19T22:05:14.516Z,13.43
2019-02-19T22:07:48.543Z,11.93
2019-02-19T22:10:23.221Z,11.55
2019-02-19T22:12:56.381Z,12.63
2019-02-19T22:15:33.621Z,13.50
2019-02-19T22:18:09.987Z,13.38
2019-02-19T22:21:01.565Z,12.93
2019-02-19T22:23:35.819Z,14.47
2019-02-19T22:26:10.973Z,13.40
2019-02-19T22:28:44.857Z,13.03
2019-02-19T22:31:19.908Z,13.48
2019-02-19T22:33:56.075Z,15.15
2019-02-19T22:36:31.130Z,16.60
2019-02-19T22:39:07.491Z,14.55
2019-02-19T22:41:42.503Z,16.75
2019-02-19T22:44:17.707Z,15.18
2019-02-19T22:46:52.077Z,16.75
2019-02-19T22:49:27.108Z,16.97
2019-02-19T22:52:00.392Z,16.00
2019-02-19T22:54:39.279Z,17.77
2019-02-19T22:57:13.166Z,17.60
2019-02-19T22:59:48.076Z,17.90
2019-02-19T23:02:24.469Z,15.23
2019-02-19T23:04:58.324Z,15.43
2019-02-19T23:07:33.271Z,16.27
2019-02-19T23:10:08.306Z,16.45
2019-02-19T23:12:43.244Z,17.00
2019-02-19T23:15:17.492Z,15.85
2019-02-19T23:17:52.498Z,15.78
2019-02-19T23:20:27.504Z,16.60
2019-02-19T23:23:02.540Z,16.25
2019-02-19T23:25:37.617Z,15.90
2019-02-19T23:28:12.982Z,16.45
2019-02-19T23:30:47.341Z,13.80
2019-02-19T23:33:21.724Z,14.33
2019-02-19T23:36:06.634Z,16.67
2019-02-19T23:38:41.592Z,16.12
2019-02-19T23:41:16.023Z,16.30
2019-02-19T23:43:52.279Z,15.60
2019-02-19T23:46:27.517Z,16.55
2019-02-19T23:49:01.900Z,16.00
2019-02-19T23:51:37.267Z,17.52
2019-02-19T23:54:13.225Z,14.75
2019-02-19T23:56:48.849Z,15.75
2019-02-19T23:59:24.262Z,15.32
